Time;durP1;ratioP1;P1;durP2;ratioP2;P2;SDS_P1;SDS_P2;PMS_P1;PMS_P2;Temp;Humidity;BMP_temperature;BMP_pressure;BME280_temperature;BME280_humidity;BME280_pressure;Samples;Min_cycle;Max_cycle;Signal;HPM_P1;HPM_P2
2022/06/13 04:04:56;;;;;;;3.30;2.97;;;;;;;17.72;81.36;100381.53;5466379;27;20007;-86
2022/06/13 04:08:00;;;;;;;3.50;3.10;;;;;;;17.81;81.27;100385.69;5330409;33;33503;-86
2022/06/13 04:11:22;;;;;;;3.58;3.20;;;;;;;17.93;81.09;100379.47;5343021;33;34474;-86
2022/06/13 04:14:49;;;;;;;3.58;3.28;;;;;;;18.01;79.88;100377.28;5328110;33;35528;-90
2022/06/13 04:18:04;;;;;;;3.65;3.30;;;;;;;18.08;78.49;100369.88;5325523;33;33942;-87
2022/06/13 04:21:07;;;;;;;3.42;2.97;;;;;;;18.12;77.48;100371.06;5325298;33;33776;-86
2022/06/13 04:24:32;;;;;;;3.20;3.00;;;;;;;18.26;78.58;100370.94;5325176;33;33740;-86
2022/06/13 04:27:46;;;;;;;3.55;3.25;;;;;;;18.44;78.41;100380.97;5296835;33;34039;-86
2022/06/13 04:30:51;;;;;;;3.37;3.08;;;;;;;18.53;77.26;100374.97;5325183;33;34956;-86
2022/06/13 04:34:00;;;;;;;5.20;3.60;;;;;;;18.67;76.65;100380.25;5325402;33;34499;-86
2022/06/13 04:37:05;;;;;;;7.40;3.47;;;;;;;18.83;76.32;100386.97;5326924;33;33858;-86
2022/06/13 04:40:13;;;;;;;5.15;3.50;;;;;;;18.97;75.80;100388.44;5330179;33;34060;-85
2022/06/13 04:43:20;;;;;;;3.40;3.10;;;;;;;19.10;74.81;100380.06;5327025;33;34051;-86
2022/06/13 04:46:27;;;;;;;3.55;3.28;;;;;;;19.23;74.19;100384.47;5324781;33;33973;-86
2022/06/13 04:49:35;;;;;;;3.58;3.20;;;;;;;19.38;75.23;100381.28;5324297;33;34165;-86
2022/06/13 04:52:38;;;;;;;3.58;3.28;;;;;;;19.45;74.17;100377.38;5326358;33;34162;-85
2022/06/13 04:55:43;;;;;;;5.00;3.40;;;;;;;19.50;74.11;100373.94;5325203;33;34890;-86
2022/06/13 04:58:48;;;;;;;3.53;2.85;;;;;;;19.61;72.61;100375.00;5324825;33;33932;-86
2022/06/13 05:01:51;;;;;;;3.25;2.95;;;;;;;19.82;72.97;100379.06;5324649;33;34262;-86
2022/06/13 05:04:54;;;;;;;4.78;2.70;;;;;;;19.82;70.59;100368.97;5324322;33;33640;-86
2022/06/13 05:07:56;;;;;;;2.95;2.75;;;;;;;20.00;68.12;100367.16;5324063;33;34168;-86
2022/06/13 05:11:24;;;;;;;2.45;2.25;;;;;;;20.10;66.69;100370.94;5324282;33;33809;-86
2022/06/13 05:14:38;;;;;;;2.70;2.50;;;;;;;20.29;64.57;100368.87;5324492;33;33953;-87
2022/06/13 05:17:43;;;;;;;2.33;2.12;;;;;;;20.43;63.22;100371.34;5324444;33;34550;-86
2022/06/13 05:20:49;;;;;;;2.03;1.83;;;;;;;20.50;63.17;100366.53;5324156;33;34974;-86
2022/06/13 05:24:29;;;;;;;2.33;2.12;;;;;;;20.56;62.70;100363.72;5309646;33;32869;-86
2022/06/13 05:27:32;;;;;;;2.72;2.53;;;;;;;20.72;61.29;100362.09;5324329;33;34768;-86
2022/06/13 05:30:35;;;;;;;2.65;2.45;;;;;;;20.86;61.14;100359.88;5323314;33;34295;-86
2022/06/13 05:33:43;;;;;;;3.78;2.28;;;;;;;20.98;60.65;100362.56;5323480;33;35251;-86
2022/06/13 05:36:46;;;;;;;2.20;2.10;;;;;;;21.14;60.30;100366.37;5323818;33;34814;-86
2022/06/13 05:39:48;;;;;;;2.80;2.30;;;;;;;21.32;60.67;100370.78;5323594;33;34017;-86
2022/06/13 05:42:51;;;;;;;2.40;2.20;;;;;;;21.42;61.42;100369.06;5323998;33;33927;-86
2022/06/13 05:45:54;;;;;;;2.22;2.03;;;;;;;21.61;59.65;100368.78;5311033;33;32327;-86
2022/06/13 05:48:58;;;;;;;4.05;2.35;;;;;;;21.68;58.67;100361.25;5324357;33;34112;-86
2022/06/13 05:52:01;;;;;;;2.17;1.90;;;;;;;21.66;56.96;100368.87;5325131;33;34677;-86
2022/06/13 05:55:05;;;;;;;3.10;2.22;;;;;;;21.88;58.13;100367.03;5326601;33;35179;-86
2022/06/13 05:58:28;;;;;;;2.65;2.45;;;;;;;22.08;58.15;100373.84;5338466;33;35242;-86
2022/06/13 06:01:34;;;;;;;2.37;2.17;;;;;;;22.26;57.42;100359.00;5335315;33;34320;-86
2022/06/13 06:04:37;;;;;;;2.33;2.17;;;;;;;22.38;57.40;100362.47;5333365;33;32533;-86
2022/06/13 06:07:40;;;;;;;2.33;2.12;;;;;;;22.56;58.08;100367.62;5328630;33;34111;-86
2022/06/13 06:10:44;;;;;;;2.20;2.00;;;;;;;22.81;57.39;100366.22;5318477;33;33179;-86
2022/06/13 06:13:47;;;;;;;2.40;2.20;;;;;;;22.97;54.27;100364.50;5330355;33;34303;-86
2022/06/13 06:16:50;;;;;;;2.30;2.10;;;;;;;23.08;52.32;100375.31;5324109;33;34104;-86
2022/06/13 06:19:53;;;;;;;2.15;1.95;;;;;;;22.99;50.42;100363.16;5321393;33;35152;-86
2022/06/13 06:22:56;;;;;;;1.77;1.67;;;;;;;23.20;51.86;100358.66;5319469;33;32964;-86
2022/06/13 06:25:59;;;;;;;2.53;2.33;;;;;;;23.29;51.42;100362.56;5329697;33;33945;-91
2022/06/13 06:29:01;;;;;;;3.03;2.40;;;;;;;23.54;52.40;100355.59;5313836;33;32675;-90
2022/06/13 06:32:05;;;;;;;4.00;2.47;;;;;;;23.74;50.89;100364.00;5326495;33;34357;-90
2022/06/13 06:35:08;;;;;;;3.22;2.05;;;;;;;23.92;49.11;100359.97;5331428;33;34441;-90
2022/06/13 06:38:11;;;;;;;2.35;1.45;;;;;;;23.99;46.23;100359.75;5327951;33;33954;-86
2022/06/13 06:41:14;;;;;;;1.58;1.48;;;;;;;23.92;44.90;100359.97;5330906;33;34208;-86
2022/06/13 06:44:17;;;;;;;1.60;1.50;;;;;;;23.96;44.71;100366.63;5337794;33;34025;-87
2022/06/13 06:47:20;;;;;;;1.65;1.55;;;;;;;24.09;44.69;100359.78;5324769;33;34662;-86
2022/06/13 06:50:27;;;;;;;1.65;1.55;;;;;;;24.26;43.91;100353.28;5326507;33;33520;-86
2022/06/13 06:59:53;;;;;;;1.42;1.33;;;;;;;24.36;44.38;100347.78;5313980;33;32603;-85
2022/06/13 07:00:14;;;;;;;1.77;1.67;;;;;;;24.61;44.72;100353.41;5331563;33;34099;-86
2022/06/13 07:03:18;;;;;;;3.50;1.90;;;;;;;24.78;43.20;100342.16;5327189;33;33759;-85
2022/06/13 07:06:21;;;;;;;1.70;1.60;;;;;;;24.64;43.58;100346.53;5327974;33;34265;-85
2022/06/13 07:09:24;;;;;;;1.65;1.55;;;;;;;24.74;43.89;100346.53;5329180;33;33911;-85
2022/06/13 07:12:26;;;;;;;1.92;1.80;;;;;;;24.67;43.88;100346.81;5324033;33;34483;-85
2022/06/13 07:15:29;;;;;;;2.10;1.48;;;;;;;24.82;44.27;100359.78;5326960;33;33892;-85
2022/06/13 07:18:32;;;;;;;1.23;1.17;;;;;;;25.00;43.11;100349.34;5327292;33;35204;-86
2022/06/13 07:21:34;;;;;;;1.90;1.80;;;;;;;25.22;42.24;100347.19;5340318;33;34336;-86
2022/06/13 07:24:37;;;;;;;1.67;1.58;;;;;;;25.23;41.98;100342.47;5343504;33;35150;-86
2022/06/13 07:27:41;;;;;;;2.30;1.67;;;;;;;25.48;42.36;100341.66;5329197;33;34003;-86
2022/06/13 07:30:44;;;;;;;2.12;1.35;;;;;;;25.74;42.59;100343.25;5334973;33;33880;-86
2022/06/13 07:33:49;;;;;;;1.75;1.48;;;;;;;25.93;40.32;100334.38;5330371;33;34228;-86
2022/06/13 07:36:54;;;;;;;1.67;1.58;;;;;;;25.84;41.11;100342.41;5325098;33;33633;-86
2022/06/13 07:39:57;;;;;;;1.60;1.45;;;;;;;25.93;40.46;100331.63;5329242;33;35393;-86
2022/06/13 07:43:02;;;;;;;1.52;1.42;;;;;;;26.01;39.15;100334.63;5325496;33;35346;-85
2022/06/13 07:46:06;;;;;;;2.40;1.45;;;;;;;26.23;38.76;100334.25;5306608;33;33028;-86
2022/06/13 07:49:09;;;;;;;1.92;1.37;;;;;;;26.40;38.02;100339.41;5323350;33;33743;-86
2022/06/13 07:52:12;;;;;;;1.42;1.33;;;;;;;26.41;37.08;100330.03;5329460;33;33947;-86
2022/06/13 07:55:16;;;;;;;2.35;1.60;;;;;;;26.52;38.21;100333.59;5332149;33;34182;-85
2022/06/13 07:58:22;;;;;;;1.95;1.58;;;;;;;26.63;37.41;100337.12;5328862;33;34144;-86
2022/06/13 08:01:26;;;;;;;4.03;1.77;;;;;;;26.56;37.46;100337.44;5300784;33;33518;-84
2022/06/13 08:04:29;;;;;;;1.52;1.42;;;;;;;26.80;38.39;100334.78;5324753;33;33872;-86
2022/06/13 08:07:51;;;;;;;1.42;1.33;;;;;;;26.85;38.00;100332.00;5318916;33;34770;-87
2022/06/13 08:10:58;;;;;;;3.05;1.40;;;;;;;26.76;36.42;100322.66;5324898;33;34293;-87
2022/06/13 08:14:01;;;;;;;1.30;1.10;;;;;;;27.01;35.06;100318.06;5326993;33;33672;-87
2022/06/13 08:17:04;;;;;;;2.33;1.83;;;;;;;27.01;33.74;100315.31;5329074;33;34837;-87
2022/06/13 08:20:09;;;;;;;1.62;1.52;;;;;;;27.10;34.73;100313.56;5327754;33;34046;-87
2022/06/13 08:23:14;;;;;;;2.35;1.48;;;;;;;27.13;36.11;100302.75;5312592;33;32379;-85
2022/06/13 08:26:17;;;;;;;2.25;1.30;;;;;;;27.22;34.87;100310.44;5317864;33;34766;-85
2022/06/13 08:29:20;;;;;;;1.42;1.33;;;;;;;27.26;34.49;100306.81;5317689;33;33952;-85
2022/06/13 08:32:23;;;;;;;2.55;1.70;;;;;;;27.24;34.89;100302.69;5325352;33;35449;-85
2022/06/13 08:35:26;;;;;;;1.92;1.77;;;;;;;27.46;34.75;100304.94;5323027;33;34744;-85
2022/06/13 08:38:37;;;;;;;2.90;1.85;;;;;;;27.55;35.17;100297.66;5327213;33;33758;-85
2022/06/13 08:41:58;;;;;;;2.80;1.67;;;;;;;27.52;36.02;100310.12;5324852;33;35466;-85
2022/06/13 08:45:09;;;;;;;2.87;1.77;;;;;;;27.48;35.64;100305.50;5325210;33;34258;-85
2022/06/13 08:48:23;;;;;;;2.92;1.37;;;;;;;27.37;35.84;100305.59;5325224;33;33702;-85
2022/06/13 08:51:57;;;;;;;1.48;1.37;;;;;;;27.59;36.50;100291.25;5324930;33;33963;-85
2022/06/13 08:55:23;;;;;;;4.25;1.77;;;;;;;27.86;36.45;100289.88;5303435;33;33548;-85
2022/06/13 08:58:30;;;;;;;1.70;1.60;;;;;;;28.04;34.84;100286.31;5324812;33;33893;-85
2022/06/13 09:01:39;;;;;;;1.60;1.50;;;;;;;28.17;35.04;100289.47;5327881;33;33716;-85
2022/06/13 09:04:59;;;;;;;;;;;;;;;28.27;34.11;100281.84;5320817;33;34709;-85
2022/06/13 09:08:42;;;;;;;2.30;1.83;;;;;;;28.41;33.64;100281.13;5328158;33;33995;-86
2022/06/13 09:11:53;;;;;;;1.98;1.77;;;;;;;28.36;33.95;100278.41;5265483;33;33981;-85
2022/06/13 09:14:56;;;;;;;1.77;1.67;;;;;;;28.78;34.97;100280.28;5326062;33;35350;-85
2022/06/13 09:18:06;;;;;;;1.20;1.15;;;;;;;28.41;34.15;100278.34;5327855;33;35069;-85
2022/06/13 09:21:31;;;;;;;1.98;1.83;;;;;;;28.03;35.15;100278.31;5324038;33;34731;-86
2022/06/13 09:24:58;;;;;;;1.50;1.40;;;;;;;28.26;33.78;100271.09;5314175;33;34062;-87
2022/06/13 09:28:09;;;;;;;2.03;1.60;;;;;;;28.72;34.10;100267.63;5322808;33;34495;-87
2022/06/13 09:31:37;;;;;;;2.78;1.50;;;;;;;28.86;34.36;100267.69;5323195;33;34829;-85
2022/06/13 09:34:45;;;;;;;1.42;1.33;;;;;;;28.66;33.01;100258.59;5322900;33;33594;-86
2022/06/13 09:37:53;;;;;;;3.15;1.58;;;;;;;28.83;33.51;100251.69;5310498;33;33162;-86
2022/06/13 09:41:02;;;;;;;1.95;1.75;;;;;;;28.82;32.83;100250.84;5324081;33;33955;-85
2022/06/13 09:44:20;;;;;;;1.58;1.40;;;;;;;29.00;32.27;100235.31;5324493;33;34095;-85
2022/06/13 09:47:35;;;;;;;1.50;1.37;;;;;;;28.79;33.96;100240.37;5325815;33;34842;-86
2022/06/13 09:50:50;;;;;;;1.42;1.33;;;;;;;28.37;33.52;100244.88;5325435;33;35395;-85
2022/06/13 09:54:10;;;;;;;1.70;1.60;;;;;;;28.65;32.56;100240.31;5322838;33;34030;-85
2022/06/13 09:57:48;;;;;;;1.60;1.50;;;;;;;28.89;33.01;100229.09;5310299;33;33272;-86
2022/06/13 10:00:59;;;;;;;1.58;1.48;;;;;;;29.09;32.21;100227.13;5337435;33;35065;-86
2022/06/13 10:04:52;;;;;;;3.97;2.27;;;;;;;29.55;32.07;100212.38;5324197;33;35199;-89
2022/06/13 10:08:03;;;;;;;1.63;1.53;;;;;;;29.79;32.37;100217.75;5324463;33;33951;-86
2022/06/13 10:11:06;;;;;;;2.05;1.85;;;;;;;30.03;30.88;100211.94;5322091;33;33719;-86
2022/06/13 10:14:39;;;;;;;1.40;1.30;;;;;;;30.40;31.41;100213.59;5323420;33;34069;-86
2022/06/13 10:17:49;;;;;;;2.12;1.70;;;;;;;30.56;29.51;100218.78;5322431;33;35588;-85
2022/06/13 10:21:07;;;;;;;2.53;1.52;;;;;;;30.88;29.80;100207.41;5325213;33;33998;-85
2022/06/13 10:24:25;;;;;;;2.73;1.60;;;;;;;30.78;29.69;100210.44;5324085;33;33981;-85
2022/06/13 10:28:03;;;;;;;2.17;1.98;;;;;;;30.77;28.93;100205.19;5315350;33;34329;-86
2022/06/13 10:31:17;;;;;;;3.40;1.73;;;;;;;31.28;29.10;100206.63;5312234;33;32783;-89
2022/06/13 10:34:35;;;;;;;1.50;1.40;;;;;;;31.22;29.23;100194.84;5326406;33;34899;-86
2022/06/13 10:37:44;;;;;;;;;;;;;;;31.06;28.77;100194.41;5330464;33;32539;-86
2022/06/13 10:40:47;;;;;;;1.75;1.60;;;;;;;30.79;29.27;100189.03;5341206;33;34791;-86
2022/06/13 10:43:50;;;;;;;1.80;1.70;;;;;;;31.10;29.44;100189.06;5330872;33;34456;-86
2022/06/13 10:47:01;;;;;;;2.15;1.60;;;;;;;31.24;28.54;100180.59;5323472;33;34927;-86
2022/06/13 10:50:12;;;;;;;1.35;1.30;;;;;;;30.94;29.46;100175.56;5320156;33;34718;-86
2022/06/13 10:53:23;;;;;;;1.77;1.67;;;;;;;30.41;30.52;100172.75;5311381;33;34024;-85
2022/06/13 10:56:49;;;;;;;3.08;1.80;;;;;;;29.95;30.32;100171.03;5325297;33;34758;-86
2022/06/13 11:00:13;;;;;;;1.70;1.60;;;;;;;29.80;30.77;100173.00;5318103;33;34604;-85
2022/06/13 11:03:18;;;;;;;1.60;1.50;;;;;;;30.72;30.56;100161.69;5332651;33;34571;-85
2022/06/13 11:06:23;;;;;;;1.48;1.37;;;;;;;32.16;28.15;100152.84;5325516;33;33993;-86
2022/06/13 11:09:43;;;;;;;1.98;1.55;;;;;;;31.72;28.65;100151.97;5325693;33;33668;-86
2022/06/13 11:12:51;;;;;;;1.70;1.60;;;;;;;31.96;29.91;100146.75;5321736;33;35480;-87
2022/06/13 11:22:37;;;;;;;1.52;1.42;;;;;;;33.84;28.61;100140.41;5329185;33;35352;-86
2022/06/13 11:23:01;;;;;;;1.70;1.60;;;;;;;34.74;26.17;100122.19;5324272;33;34038;-86
2022/06/13 11:27:39;;;;;;;1.30;1.20;;;;;;;35.48;24.15;100120.25;5324610;33;35370;-86
2022/06/13 11:29:28;;;;;;;1.15;1.15;;;;;;;36.93;22.46;100115.59;5323081;33;34421;-87
2022/06/13 11:32:31;;;;;;;2.40;1.20;;;;;;;37.09;22.14;100108.03;5325112;33;33978;-86
2022/06/13 11:35:41;;;;;;;1.70;1.60;;;;;;;35.93;23.70;100110.84;5312231;33;33506;-86
2022/06/13 11:39:04;;;;;;;2.55;1.75;;;;;;;35.68;24.76;100098.88;5313591;33;32742;-86
2022/06/13 11:42:27;;;;;;;2.40;1.67;;;;;;;34.43;25.31;100095.56;5319069;33;34137;-86
2022/06/13 11:45:38;;;;;;;2.45;1.67;;;;;;;33.15;27.05;100097.84;5308785;33;32742;-86
2022/06/13 11:48:48;;;;;;;2.55;1.60;;;;;;;32.99;28.45;100095.94;5324300;33;32494;-86
2022/06/13 11:51:59;;;;;;;1.77;1.67;;;;;;;33.08;28.33;100094.72;5325001;33;34264;-91
2022/06/13 11:55:02;;;;;;;1.80;1.70;;;;;;;32.16;28.75;100097.94;5324236;33;33862;-87
2022/06/13 11:58:15;;;;;;;1.40;1.35;;;;;;;31.72;29.70;100099.06;5310590;33;33261;-86
2022/06/13 12:01:26;;;;;;;1.77;1.67;;;;;;;31.30;30.35;100099.47;5322620;33;33995;-86
2022/06/13 12:04:31;;;;;;;2.22;2.10;;;;;;;31.03;32.77;100100.50;5324486;33;34757;-86
2022/06/13 12:07:33;;;;;;;2.92;1.95;;;;;;;30.89;32.83;100097.87;5312285;33;32291;-86
2022/06/13 12:10:41;;;;;;;4.65;2.20;;;;;;;30.82;33.33;100097.50;5309863;33;34295;-86
2022/06/13 12:13:45;;;;;;;2.00;1.83;;;;;;;31.22;32.80;100091.91;5324201;33;33962;-86
2022/06/13 12:17:17;;;;;;;2.08;1.98;;;;;;;31.86;33.98;100085.81;5323256;33;35471;-86
2022/06/13 12:20:36;;;;;;;2.87;1.92;;;;;;;34.28;28.43;100087.78;5320348;33;33920;-86
2022/06/13 12:23:47;;;;;;;2.20;2.10;;;;;;;36.67;26.45;100071.25;5322990;33;34145;-87
2022/06/13 12:27:07;;;;;;;3.42;2.00;;;;;;;37.95;22.69;100079.09;5324306;33;34100;-87
2022/06/13 12:30:38;;;;;;;3.30;2.00;;;;;;;39.52;21.57;100060.50;5313375;33;35188;-86
2022/06/13 12:34:03;;;;;;;2.33;1.65;;;;;;;40.23;20.54;100057.78;5311572;33;33597;-89
2022/06/13 12:37:09;;;;;;;1.87;1.77;;;;;;;40.05;20.60;100063.22;5309107;33;34232;-87
2022/06/13 12:40:37;;;;;;;2.47;1.70;;;;;;;40.85;19.72;100062.81;5323749;33;34032;-87
2022/06/13 12:43:48;;;;;;;1.80;1.70;;;;;;;41.70;19.11;100056.91;5329650;33;34498;-86
2022/06/13 12:47:03;;;;;;;2.12;1.45;;;;;;;41.32;19.25;100047.00;5328877;33;34285;-87
2022/06/13 12:50:30;;;;;;;1.60;1.52;;;;;;;40.10;20.21;100043.09;5319125;33;34126;-87
2022/06/13 12:53:44;;;;;;;1.85;1.75;;;;;;;38.59;21.04;100047.78;5322178;33;34876;-86
2022/06/13 12:56:52;;;;;;;2.15;1.95;;;;;;;37.57;22.48;100041.34;5318888;33;34771;-86
2022/06/13 13:00:11;;;;;;;2.50;2.30;;;;;;;35.84;25.12;100037.34;5307259;33;32313;-86
2022/06/13 13:03:41;;;;;;;1.70;1.60;;;;;;;35.03;26.79;100039.22;5330532;33;34620;-86
2022/06/13 13:06:56;;;;;;;2.20;2.00;;;;;;;35.01;27.51;100033.97;5333544;33;216568;-87
2022/06/13 13:10:19;;;;;;;1.92;1.83;;;;;;;34.92;26.64;100033.28;5318561;33;34159;-87
2022/06/13 13:13:48;;;;;;;2.37;2.17;;;;;;;34.41;27.36;100044.75;5317480;33;33987;-87
2022/06/13 13:16:57;;;;;;;2.50;2.30;;;;;;;35.97;26.72;100041.69;5306882;33;32903;-86
2022/06/13 13:20:11;;;;;;;3.87;2.55;;;;;;;37.39;25.25;100040.94;5318198;33;33190;-86
2022/06/13 13:23:29;;;;;;;3.85;2.58;;;;;;;36.19;27.81;100048.75;5320446;33;34573;-86
2022/06/13 13:26:51;;;;;;;2.67;2.40;;;;;;;33.91;32.63;100051.34;5316557;33;32500;-84
2022/06/13 13:30:04;;;;;;;2.85;2.65;;;;;;;32.42;35.08;100061.66;5331374;33;35551;-84
2022/06/13 13:33:23;;;;;;;2.50;2.30;;;;;;;32.03;35.30;100065.50;5323748;33;34182;-84
2022/06/13 13:36:40;;;;;;;2.75;2.55;;;;;;;31.28;36.41;100059.22;5323580;33;33935;-84
2022/06/13 13:39:52;;;;;;;2.62;2.42;;;;;;;31.05;38.13;100058.50;5322119;33;32349;-85
2022/06/13 13:43:09;;;;;;;2.92;2.72;;;;;;;30.75;38.58;100062.94;5339126;33;33718;-84
2022/06/13 13:46:27;;;;;;;2.90;2.70;;;;;;;30.57;38.19;100064.81;5315511;33;34093;-84
2022/06/13 13:49:51;;;;;;;2.85;2.65;;;;;;;30.36;38.54;100061.75;5320122;33;35047;-85
2022/06/13 13:52:58;;;;;;;2.65;2.55;;;;;;;30.43;38.43;100051.84;5310913;33;33901;-84
2022/06/13 13:56:35;;;;;;;2.60;2.40;;;;;;;30.73;37.98;100058.50;5309177;33;32943;-84
2022/06/13 13:59:43;;;;;;;3.08;2.78;;;;;;;30.66;37.24;100052.59;5326050;33;33724;-84
2022/06/13 14:03:14;;;;;;;2.70;2.50;;;;;;;30.18;37.52;100063.59;5325525;33;33546;-84
2022/06/13 14:06:24;;;;;;;2.67;2.42;;;;;;;29.90;37.68;100051.81;5312814;33;32860;-88
2022/06/13 14:09:30;;;;;;;2.83;2.50;;;;;;;29.77;37.48;100054.31;5315276;33;32392;-85
2022/06/13 14:13:05;;;;;;;2.97;2.78;;;;;;;29.43;38.52;100056.78;5329701;33;33898;-85
2022/06/13 14:16:21;;;;;;;2.67;2.47;;;;;;;29.02;38.58;100050.16;5332171;33;33976;-84
2022/06/13 14:19:27;;;;;;;2.97;2.12;;;;;;;29.08;39.44;100054.44;5330642;33;33888;-84
2022/06/13 14:22:37;;;;;;;2.35;2.25;;;;;;;29.15;39.19;100048.47;5322705;33;35174;-84
2022/06/13 14:25:42;;;;;;;2.78;2.58;;;;;;;28.95;39.86;100052.47;5324415;33;34310;-84
2022/06/13 14:28:51;;;;;;;2.67;2.40;;;;;;;29.41;39.24;100037.66;5312478;33;35653;-84
2022/06/13 14:32:15;;;;;;;2.42;2.28;;;;;;;29.71;38.88;100041.69;5325812;33;34179;-84
2022/06/13 14:35:56;;;;;;;2.50;2.30;;;;;;;29.58;39.10;100037.81;5323499;33;32814;-84
2022/06/13 14:39:03;;;;;;;2.30;2.10;;;;;;;29.05;39.14;100040.41;5331630;33;33507;-85
2022/06/13 14:42:16;;;;;;;2.43;2.23;;;;;;;29.20;39.51;100048.38;5346960;33;34477;-85
2022/06/13 14:45:36;;;;;;;3.35;2.10;;;;;;;29.22;39.02;100050.81;5308556;33;34271;-88
2022/06/13 14:49:09;;;;;;;1.80;1.70;;;;;;;29.06;39.02;100047.56;5325165;33;34268;-84
2022/06/13 14:52:14;;;;;;;2.25;1.60;;;;;;;28.85;38.23;100055.47;5325529;33;35537;-84
2022/06/13 14:55:18;;;;;;;2.00;1.80;;;;;;;28.73;38.45;100053.19;5331037;33;34105;-83
2022/06/13 14:58:50;;;;;;;1.70;1.60;;;;;;;28.43;39.33;100046.28;5331626;33;33766;-84
2022/06/13 15:02:11;;;;;;;1.98;1.70;;;;;;;28.24;38.67;100040.78;5326808;33;34585;-84
2022/06/13 15:05:14;;;;;;;1.73;1.62;;;;;;;27.97;40.03;100045.13;5341209;33;33955;-84
2022/06/13 15:08:23;;;;;;;1.70;1.60;;;;;;;27.93;40.10;100054.31;5312570;33;32856;-83
2022/06/13 15:11:26;;;;;;;1.90;1.75;;;;;;;27.63;40.08;100059.16;5324734;33;34669;-83
2022/06/13 15:14:39;;;;;;;1.62;1.52;;;;;;;27.59;40.60;100047.06;5324316;33;33708;-84
2022/06/13 15:17:42;;;;;;;3.78;1.70;;;;;;;27.45;40.90;100051.69;5324745;33;33993;-84
2022/06/13 15:20:47;;;;;;;1.62;1.52;;;;;;;27.35;41.25;100064.53;5323316;33;34083;-84
2022/06/13 15:23:54;;;;;;;1.90;1.70;;;;;;;27.45;40.52;100065.53;5324444;33;33840;-84
2022/06/13 15:27:06;;;;;;;2.05;1.52;;;;;;;27.41;41.06;100070.81;5323529;33;33520;-84
2022/06/13 15:30:12;;;;;;;1.77;1.67;;;;;;;27.40;41.71;100069.16;5313160;33;33810;-88
2022/06/13 15:33:21;;;;;;;1.70;1.60;;;;;;;27.52;41.83;100066.78;5320072;33;33690;-85
2022/06/13 15:36:25;;;;;;;1.70;1.60;;;;;;;27.49;42.28;100067.37;5322289;33;34724;-84
2022/06/13 15:39:41;;;;;;;1.70;1.60;;;;;;;27.56;43.11;100069.78;5307290;33;32938;-84
2022/06/13 15:42:46;;;;;;;1.80;1.70;;;;;;;27.68;42.22;100064.63;5322849;33;34717;-84
2022/06/13 15:45:54;;;;;;;1.70;1.60;;;;;;;27.69;42.33;100071.78;5324013;33;33843;-84
2022/06/13 15:49:08;;;;;;;1.60;1.50;;;;;;;27.45;42.85;100055.28;5324266;33;34390;-84
2022/06/13 15:52:13;;;;;;;1.70;1.60;;;;;;;27.45;43.46;100049.75;5323444;33;34046;-84
2022/06/13 15:55:20;;;;;;;1.52;1.42;;;;;;;27.46;42.44;100047.81;5322926;33;35689;-84
